Time,TemperatureF,DewpointF,PressureIn,WindDirection,WindDirectionDegrees,WindSpeedMPH,WindSpeedGustMPH,Humidity,HourlyPrecipIn,Conditions,Clouds,dailyrainin,SolarRadiationWatts/m^2,SoftwareType,DateUTC
2013-09-27 00:05:00,63.0,53.0,-100.00,SE,128,2.0,4.0,70,0.00,,,0.00,0.000000,,2013-09-27 04:05:00,
2013-09-27 07:43:00,56.0,54.0,-100.00,ESE,108,1.0,4.0,93,-99.99,,,0.00,0.000000,,2013-09-27 11:43:00,
2013-09-27 07:52:00,56.0,54.0,-100.00,ESE,108,1.0,4.0,93,-99.99,,,0.00,0.000000,,2013-09-27 11:52:00,
2013-09-27 08:02:00,56.0,54.0,-100.00,ESE,108,1.0,4.0,93,-99.99,,,0.00,0.000000,,2013-09-27 12:02:00,
2013-09-27 08:42:00,55.0,54.0,-100.00,ESE,113,1.0,4.0,96,-99.99,,,0.00,6.000000,,2013-09-27 12:42:00,
2013-09-27 08:52:00,55.0,54.0,-100.00,ESE,113,1.0,4.0,96,-99.99,,,0.00,6.000000,,2013-09-27 12:52:00,
2013-09-27 09:02:00,55.0,54.0,-100.00,ESE,113,1.0,4.0,96,-99.99,,,0.00,6.000000,,2013-09-27 13:02:00,
2013-09-27 12:44:00,79.0,58.0,-100.00,West,260,1.0,7.0,49,0.00,,,0.00,646.000000,,2013-09-27 16:44:00,
2013-09-27 12:53:00,79.0,58.0,-100.00,West,260,1.0,7.0,49,0.00,,,0.00,646.000000,,2013-09-27 16:53:00,
2013-09-27 13:03:00,79.0,58.0,-100.00,West,260,1.0,7.0,49,0.00,,,0.00,646.000000,,2013-09-27 17:03:00,
2013-09-27 13:43:00,80.0,53.0,-100.00,East,84,1.0,9.0,39,0.00,,,0.00,655.000000,,2013-09-27 17:43:00,
2013-09-27 13:52:00,80.0,53.0,-100.00,East,84,1.0,9.0,39,0.00,,,0.00,655.000000,,2013-09-27 17:52:00,
2013-09-27 14:02:00,80.0,53.0,-100.00,East,84,1.0,9.0,39,0.00,,,0.00,655.000000,,2013-09-27 18:02:00,
2013-09-27 14:43:00,81.0,51.0,-100.00,ESE,120,2.0,8.0,35,0.00,,,0.00,748.000000,,2013-09-27 18:43:00,
2013-09-27 14:52:00,81.0,51.0,-100.00,ESE,120,2.0,8.0,35,0.00,,,0.00,748.000000,,2013-09-27 18:52:00,
2013-09-27 15:02:00,81.0,51.0,-100.00,ESE,120,2.0,8.0,35,0.00,,,0.00,748.000000,,2013-09-27 19:02:00,
2013-09-27 15:43:00,83.0,54.0,-100.00,SW,221,1.0,9.0,37,0.00,,,0.00,711.000000,,2013-09-27 19:43:00,
2013-09-27 15:53:00,83.0,54.0,-100.00,SW,221,1.0,9.0,37,0.00,,,0.00,711.000000,,2013-09-27 19:53:00,
2013-09-27 16:03:00,83.0,54.0,-100.00,SW,221,1.0,9.0,37,0.00,,,0.00,711.000000,,2013-09-27 20:03:00,
2013-09-27 16:43:00,83.0,57.0,-100.00,SW,234,1.0,7.0,41,0.00,,,0.00,583.000000,,2013-09-27 20:43:00,
2013-09-27 16:52:00,83.0,57.0,-100.00,SW,234,1.0,7.0,41,0.00,,,0.00,583.000000,,2013-09-27 20:52:00,
2013-09-27 17:02:00,83.0,57.0,-100.00,SW,234,1.0,7.0,41,0.00,,,0.00,583.000000,,2013-09-27 21:02:00,
2013-09-27 17:44:00,82.0,55.0,-100.00,SSE,150,3.0,6.0,39,0.00,,,0.00,483.000000,,2013-09-27 21:44:00,
2013-09-27 17:54:00,82.0,55.0,-100.00,SSE,150,3.0,6.0,39,0.00,,,0.00,483.000000,,2013-09-27 21:54:00,
2013-09-27 18:04:00,82.0,55.0,-100.00,SSE,150,3.0,6.0,39,0.00,,,0.00,483.000000,,2013-09-27 22:04:00,
2013-09-27 18:43:00,81.0,55.0,-100.00,SSE,162,1.0,6.0,41,0.00,,,0.00,296.000000,,2013-09-27 22:43:00,
2013-09-27 18:53:00,81.0,55.0,-100.00,SSE,162,1.0,6.0,41,0.00,,,0.00,296.000000,,2013-09-27 22:53:00,
2013-09-27 19:03:00,81.0,55.0,-100.00,SSE,162,1.0,6.0,41,0.00,,,0.00,296.000000,,2013-09-27 23:03:00,
2013-09-27 19:43:00,72.0,55.0,-100.00,ESE,120,0.0,5.0,56,0.00,,,0.00,64.000000,,2013-09-27 23:43:00,
2013-09-27 19:53:00,72.0,55.0,-100.00,ESE,120,0.0,5.0,56,0.00,,,0.00,64.000000,,2013-09-27 23:53:00,
2013-09-27 20:02:00,72.0,55.0,-100.00,ESE,120,0.0,5.0,56,0.00,,,0.00,64.000000,,2013-09-28 00:02:00,
2013-09-27 20:42:00,67.0,53.0,-100.00,ESE,111,0.0,1.0,60,0.00,,,0.00,5.000000,,2013-09-28 00:42:00,
2013-09-27 20:52:00,67.0,53.0,-100.00,ESE,111,0.0,1.0,60,0.00,,,0.00,5.000000,,2013-09-28 00:52:00,
2013-09-27 21:01:00,67.0,53.0,-100.00,ESE,111,0.0,1.0,60,0.00,,,0.00,5.000000,,2013-09-28 01:01:00,
2013-09-27 21:42:00,66.0,51.0,-100.00,NNE,29,0.0,1.0,58,0.00,,,-99.99,0.000000,,2013-09-28 01:42:00,
2013-09-27 21:52:00,66.0,51.0,-100.00,NNE,29,0.0,1.0,58,0.00,,,-99.99,0.000000,,2013-09-28 01:52:00,
2013-09-27 22:03:00,66.0,51.0,-100.00,NNE,29,0.0,1.0,58,0.00,,,-99.99,0.000000,,2013-09-28 02:03:00,
2013-09-27 22:42:00,66.0,53.0,-100.00,East,97,0.0,3.0,62,0.00,,,0.00,0.000000,,2013-09-28 02:42:00,
2013-09-27 22:53:00,66.0,53.0,-100.00,East,97,0.0,3.0,62,0.00,,,0.00,0.000000,,2013-09-28 02:53:00,
2013-09-27 23:03:00,66.0,53.0,-100.00,East,97,0.0,3.0,62,0.00,,,0.00,0.000000,,2013-09-28 03:03:00,